aviador You're here:

PALG Decoded Metar

KALSKAG in AK, USA
Report Time2018-07-20 05:56:00
UTC Time2018-07-20 06:43:19
Flight Rules vfr VFR
WindVRB at 03 kt
Visibility9999 m
Phenomena:N/A
Clouds:N/A
Expected CloudBase > 2,800 ft AGL from Temp-Dew spread
CeilingNone
Temp18°C (ISA +3)
Dew Point11°C (64% RH)
AAT17.3°C
QNH1022 hPa
Density Alt295 ft
Elevation56 ft
Report Wrong Elevation
Raw Report
PALG 200556Z AUTO VRB03KT 10SM CLR 18/11 A3019 RMK AO2 SLP229
T01780111 10189 20172 56005 PWINO=

Extra information for PALG:More info

Metar Taf Metar & Taf Last 4 Metars F.Rules Stats Wind Profile Meteogram Temp Stats Airport Information Weather charts Add Link Nearby VenuesMetar ALERT Operation Metar Decoded Social comments

AIRNAV info for PALG